Time,TemperatureF,DewpointF,PressureIn,WindDirection,WindDirectionDegrees,WindSpeedMPH,WindSpeedGustMPH,Humidity,HourlyPrecipIn,Conditions,Clouds,dailyrainin,SoftwareType,DateUTC
2013-03-12 00:02:00,40.5,38.1,30.23,South,180,4.0,5.0,91,0.00,,,0.00,meteohub,2013-03-12 04:02:00,
2013-03-12 00:07:00,40.5,38.1,30.23,SSE,158,2.0,5.0,91,0.00,,,0.00,meteohub,2013-03-12 04:07:00,
2013-03-12 00:12:00,40.5,38.1,30.20,SSE,158,4.0,5.0,91,0.00,,,0.00,meteohub,2013-03-12 04:12:00,
2013-03-12 00:17:00,40.5,38.3,30.20,SSW,202,3.0,6.0,92,0.00,,,0.00,meteohub,2013-03-12 04:17:00,
2013-03-12 00:22:00,40.5,38.3,30.20,SSE,158,3.0,6.0,92,0.00,,,0.00,meteohub,2013-03-12 04:22:00,
2013-03-12 00:32:00,40.5,38.7,30.20,SE,135,1.0,4.0,93,0.00,,,0.00,meteohub,2013-03-12 04:32:00,
2013-03-12 00:37:00,40.5,38.8,30.20,SSE,158,0.0,5.0,94,0.00,,,0.00,meteohub,2013-03-12 04:37:00,
2013-03-12 00:42:00,40.5,38.7,30.20,SSE,158,3.0,5.0,93,0.00,,,0.00,meteohub,2013-03-12 04:42:00,
2013-03-12 00:47:00,40.5,38.8,30.20,SSE,158,0.0,5.0,94,0.00,,,0.00,meteohub,2013-03-12 04:47:00,
2013-03-12 00:52:00,40.5,38.8,30.20,South,180,3.0,4.0,94,0.00,,,0.00,meteohub,2013-03-12 04:52:00,
2013-03-12 00:57:00,40.5,39.2,30.20,SSW,202,2.0,4.0,95,0.00,,,0.00,meteohub,2013-03-12 04:57:00,
2013-03-12 01:07:00,40.5,39.2,30.20,WSW,248,1.0,5.0,95,0.00,,,0.00,meteohub,2013-03-12 05:07:00,
2013-03-12 01:12:00,40.3,38.7,30.20,South,180,2.0,5.0,94,0.00,,,0.00,meteohub,2013-03-12 05:12:00,
2013-03-12 01:17:00,40.3,39.0,30.20,SE,135,3.0,4.0,95,0.00,,,0.00,meteohub,2013-03-12 05:17:00,
2013-03-12 01:22:00,40.3,39.0,30.20,SW,225,0.0,5.0,95,0.00,,,0.00,meteohub,2013-03-12 05:22:00,
2013-03-12 01:32:00,40.1,38.8,30.20,SSW,202,0.0,5.0,95,0.00,,,0.00,meteohub,2013-03-12 05:32:00,
2013-03-12 01:42:00,40.1,38.8,30.20,SW,225,3.0,3.0,95,0.00,,,0.00,meteohub,2013-03-12 05:42:00,
2013-03-12 01:47:00,40.3,39.2,30.20,South,180,3.0,5.0,96,0.00,,,0.00,meteohub,2013-03-12 05:47:00,
2013-03-12 01:52:00,40.5,39.4,30.20,South,180,3.0,5.0,96,0.00,,,0.00,meteohub,2013-03-12 05:52:00,
2013-03-12 01:57:00,40.6,39.6,30.17,SSW,202,0.0,5.0,96,0.00,,,0.00,meteohub,2013-03-12 05:57:00,
2013-03-12 02:07:00,40.6,39.6,30.17,South,180,1.0,4.0,96,0.00,,,0.00,meteohub,2013-03-12 06:07:00,
2013-03-12 02:12:00,40.6,39.6,30.20,South,180,3.0,4.0,96,0.00,,,0.00,meteohub,2013-03-12 06:12:00,
2013-03-12 02:17:00,41.0,39.9,30.20,South,180,2.0,4.0,96,0.00,,,0.00,meteohub,2013-03-12 06:17:00,
2013-03-12 02:22:00,41.0,40.3,30.20,SSW,202,2.0,4.0,97,0.00,,,0.00,meteohub,2013-03-12 06:22:00,
2013-03-12 02:27:00,41.2,40.5,30.17,SSE,158,3.0,4.0,97,0.00,,,0.00,meteohub,2013-03-12 06:27:00,
2013-03-12 02:32:00,41.4,40.6,30.17,South,180,3.0,5.0,97,0.00,,,0.00,meteohub,2013-03-12 06:32:00,
2013-03-12 02:37:00,41.5,41.0,30.17,South,180,4.0,5.0,98,0.00,,,0.00,meteohub,2013-03-12 06:37:00,
2013-03-12 02:42:00,41.7,41.2,30.17,South,180,3.0,4.0,98,0.00,,,0.00,meteohub,2013-03-12 06:42:00,
2013-03-12 02:47:00,41.7,41.2,30.17,South,180,2.0,6.0,98,0.00,,,0.00,meteohub,2013-03-12 06:47:00,
2013-03-12 02:57:00,41.7,41.2,30.17,South,180,3.0,6.0,98,0.00,,,0.00,meteohub,2013-03-12 06:57:00,
2013-03-12 03:02:00,41.5,41.0,30.17,SE,135,5.0,6.0,98,0.00,,,0.00,meteohub,2013-03-12 07:02:00,
2013-03-12 03:07:00,41.5,41.0,30.17,South,180,2.0,6.0,98,0.00,,,0.00,meteohub,2013-03-12 07:07:00,
2013-03-12 03:17:00,41.7,41.2,30.17,South,180,3.0,5.0,98,0.00,,,0.00,meteohub,2013-03-12 07:17:00,
2013-03-12 03:22:00,41.7,41.2,30.17,WSW,248,2.0,6.0,98,0.00,,,0.00,meteohub,2013-03-12 07:22:00,
2013-03-12 03:27:00,41.7,41.2,30.17,SSE,158,3.0,6.0,98,0.00,,,0.00,meteohub,2013-03-12 07:27:00,
2013-03-12 03:32:00,41.7,41.2,30.17,SW,225,2.0,6.0,98,0.00,,,0.00,meteohub,2013-03-12 07:32:00,
2013-03-12 03:37:00,41.7,41.2,30.17,SSW,202,3.0,6.0,98,0.00,,,0.00,meteohub,2013-03-12 07:37:00,
2013-03-12 03:42:00,41.7,41.2,30.14,SSW,202,1.0,6.0,98,0.00,,,0.00,meteohub,2013-03-12 07:42:00,
2013-03-12 03:47:00,41.5,41.0,30.14,SSE,158,0.0,4.0,98,0.00,,,0.00,meteohub,2013-03-12 07:47:00,
2013-03-12 03:57:00,41.5,41.0,30.14,South,180,4.0,4.0,98,0.00,,,0.00,meteohub,2013-03-12 07:57:00,
2013-03-12 04:02:00,41.5,41.0,30.14,South,180,1.0,5.0,98,0.00,,,0.00,meteohub,2013-03-12 08:02:00,
2013-03-12 04:12:00,41.7,41.2,30.14,SSW,202,1.0,6.0,98,0.00,,,0.00,meteohub,2013-03-12 08:12:00,
2013-03-12 04:17:00,41.5,41.0,30.14,South,180,2.0,6.0,98,0.00,,,0.00,meteohub,2013-03-12 08:17:00,
2013-03-12 04:22:00,41.7,41.2,30.14,SSE,158,2.0,4.0,98,0.00,,,0.00,meteohub,2013-03-12 08:22:00,
2013-03-12 04:27:00,41.7,41.2,30.12,SSE,158,2.0,4.0,98,0.00,,,0.00,meteohub,2013-03-12 08:27:00,
2013-03-12 04:32:00,41.7,41.2,30.12,South,180,3.0,4.0,98,0.00,,,0.00,meteohub,2013-03-12 08:32:00,
2013-03-12 04:37:00,41.7,41.2,30.12,South,180,2.0,5.0,98,0.00,,,0.00,meteohub,2013-03-12 08:37:00,
2013-03-12 04:47:00,41.7,41.2,30.09,SE,135,3.0,5.0,98,0.00,,,0.00,meteohub,2013-03-12 08:47:00,
2013-03-12 04:52:00,41.5,41.0,30.09,SSW,202,1.0,4.0,98,0.00,,,0.00,meteohub,2013-03-12 08:52:00,
2013-03-12 04:57:00,41.7,41.2,30.09,South,180,4.0,5.0,98,0.00,,,0.00,meteohub,2013-03-12 08:57:00,
2013-03-12 05:02:00,41.5,41.0,30.09,SSW,202,2.0,5.0,98,0.00,,,0.00,meteohub,2013-03-12 09:02:00,
2013-03-12 05:07:00,41.5,41.0,30.09,WSW,248,0.0,5.0,98,0.00,,,0.00,meteohub,2013-03-12 09:07:00,
2013-03-12 05:17:00,41.7,41.2,30.12,SSE,158,0.0,4.0,98,0.00,,,0.00,meteohub,2013-03-12 09:17:00,
2013-03-12 05:22:00,41.5,41.0,30.12,South,180,1.0,4.0,98,0.00,,,0.00,meteohub,2013-03-12 09:22:00,
2013-03-12 05:27:00,41.5,41.0,30.14,South,180,0.0,4.0,98,0.00,,,0.00,meteohub,2013-03-12 09:27:00,
2013-03-12 05:32:00,41.5,41.0,30.14,East,90,0.0,3.0,98,0.00,,,0.00,meteohub,2013-03-12 09:32:00,
2013-03-12 05:42:00,41.2,40.6,30.09,SSW,202,0.0,3.0,98,0.00,,,0.00,meteohub,2013-03-12 09:42:00,
2013-03-12 05:52:00,41.2,40.6,30.09,West,270,2.0,2.0,98,0.00,,,0.00,meteohub,2013-03-12 09:52:00,
2013-03-12 05:57:00,41.0,40.5,30.12,South,180,0.0,2.0,98,0.00,,,0.00,meteohub,2013-03-12 09:57:00,
2013-03-12 06:02:00,41.0,40.5,30.12,South,180,0.0,2.0,98,0.00,,,0.00,meteohub,2013-03-12 10:02:00,
2013-03-12 06:07:00,41.0,40.5,30.12,SSE,158,0.0,2.0,98,0.00,,,0.00,meteohub,2013-03-12 10:07:00,
2013-03-12 06:12:00,41.0,40.5,30.12,SSE,158,0.0,3.0,98,0.00,,,0.00,meteohub,2013-03-12 10:12:00,
2013-03-12 06:17:00,41.0,40.5,30.12,SSE,158,0.0,3.0,98,0.00,,,0.00,meteohub,2013-03-12 10:17:00,
2013-03-12 06:27:00,41.0,40.5,30.12,WSW,248,0.0,2.0,98,0.00,,,0.00,meteohub,2013-03-12 10:27:00,
2013-03-12 06:32:00,41.5,41.0,30.12,WSW,248,2.0,5.0,98,0.00,,,0.00,meteohub,2013-03-12 10:32:00,
2013-03-12 06:42:00,42.1,41.5,30.12,SSE,158,2.0,5.0,98,0.00,,,0.00,meteohub,2013-03-12 10:42:00,
2013-03-12 06:47:00,42.3,41.7,30.12,South,180,0.0,3.0,98,0.00,,,0.00,meteohub,2013-03-12 10:47:00,
2013-03-12 06:57:00,42.4,41.9,30.12,West,270,1.0,5.0,98,0.00,,,0.00,meteohub,2013-03-12 10:57:00,
2013-03-12 07:07:00,43.0,42.4,30.12,WSW,248,3.0,5.0,98,0.00,,,0.00,meteohub,2013-03-12 11:07:00,
2013-03-12 07:12:00,43.0,42.4,30.12,SW,225,3.0,4.0,98,0.00,,,0.00,meteohub,2013-03-12 11:12:00,
2013-03-12 07:22:00,43.2,42.6,30.12,South,180,0.0,4.0,98,0.00,,,0.00,meteohub,2013-03-12 11:22:00,
2013-03-12 07:27:00,43.0,42.4,30.12,WSW,248,1.0,3.0,98,0.00,,,0.00,meteohub,2013-03-12 11:27:00,
2013-03-12 07:32:00,43.0,42.4,30.12,South,180,0.0,3.0,98,0.00,,,0.00,meteohub,2013-03-12 11:32:00,
2013-03-12 07:42:00,42.8,42.3,30.12,South,180,1.0,3.0,98,0.00,,,0.00,meteohub,2013-03-12 11:42:00,
2013-03-12 07:47:00,43.0,42.4,30.12,South,180,3.0,4.0,98,0.00,,,0.00,meteohub,2013-03-12 11:47:00,
2013-03-12 07:52:00,43.2,42.6,30.12,South,180,0.0,4.0,98,0.00,,,0.00,meteohub,2013-03-12 11:52:00,
2013-03-12 07:57:00,43.5,43.0,30.12,SW,225,2.0,4.0,98,0.00,,,0.00,meteohub,2013-03-12 11:57:00,
2013-03-12 08:07:00,44.2,43.7,30.12,South,180,2.0,4.0,98,0.00,,,0.00,meteohub,2013-03-12 12:07:00,
2013-03-12 08:12:00,44.2,43.7,30.12,SW,225,2.0,4.0,98,0.00,,,0.00,meteohub,2013-03-12 12:12:00,
2013-03-12 08:17:00,44.6,44.1,30.12,South,180,2.0,4.0,98,0.00,,,0.00,meteohub,2013-03-12 12:17:00,
2013-03-12 08:27:00,45.0,44.4,30.09,SSW,202,1.0,5.0,98,0.00,,,0.00,meteohub,2013-03-12 12:27:00,
2013-03-12 08:32:00,45.1,44.6,30.09,SSW,202,2.0,3.0,98,0.00,,,0.00,meteohub,2013-03-12 12:32:00,
2013-03-12 08:37:00,45.5,45.0,30.09,SSE,158,1.0,5.0,98,0.00,,,0.00,meteohub,2013-03-12 12:37:00,
2013-03-12 08:42:00,45.9,45.3,30.12,SW,225,3.0,5.0,98,0.00,,,0.00,meteohub,2013-03-12 12:42:00,
2013-03-12 08:52:00,45.9,45.3,30.12,South,180,0.0,6.0,98,0.00,,,0.00,meteohub,2013-03-12 12:52:00,
2013-03-12 08:57:00,45.9,45.3,30.12,SW,225,0.0,6.0,98,0.00,,,0.00,meteohub,2013-03-12 12:57:00,
2013-03-12 09:02:00,45.7,45.1,30.12,SSW,202,3.0,4.0,98,0.00,,,0.00,meteohub,2013-03-12 13:02:00,
2013-03-12 09:12:00,46.0,45.5,30.12,SE,135,3.0,6.0,98,0.00,,,0.00,meteohub,2013-03-12 13:12:00,
2013-03-12 09:17:00,46.2,45.7,30.12,South,180,1.0,6.0,98,0.00,,,0.00,meteohub,2013-03-12 13:17:00,
2013-03-12 09:22:00,46.4,45.9,30.12,South,180,2.0,6.0,98,0.00,,,0.00,meteohub,2013-03-12 13:22:00,
2013-03-12 09:27:00,46.6,46.0,30.12,South,180,2.0,5.0,98,0.00,,,0.00,meteohub,2013-03-12 13:27:00,
2013-03-12 09:32:00,46.6,46.0,30.12,SSE,158,3.0,5.0,98,0.00,,,0.00,meteohub,2013-03-12 13:32:00,
2013-03-12 09:37:00,46.9,46.4,30.12,South,180,4.0,6.0,98,0.00,,,0.00,meteohub,2013-03-12 13:37:00,
2013-03-12 09:42:00,47.1,46.6,30.09,SE,135,2.0,7.0,98,0.00,,,0.00,meteohub,2013-03-12 13:42:00,
2013-03-12 09:47:00,47.5,46.9,30.09,WSW,248,3.0,7.0,98,0.00,,,0.00,meteohub,2013-03-12 13:47:00,
2013-03-12 09:57:00,47.8,47.3,30.09,WNW,292,3.0,8.0,98,0.00,,,0.00,meteohub,2013-03-12 13:57:00,
2013-03-12 10:02:00,48.0,47.5,30.09,West,270,5.0,7.0,98,0.00,,,0.00,meteohub,2013-03-12 14:02:00,
2013-03-12 10:07:00,48.2,47.7,30.09,WSW,248,1.0,9.0,98,0.00,,,0.00,meteohub,2013-03-12 14:07:00,
2013-03-12 10:12:00,48.2,47.7,30.09,South,180,4.0,9.0,98,0.00,,,0.00,meteohub,2013-03-12 14:12:00,
2013-03-12 10:22:00,48.6,48.0,30.09,South,180,4.0,8.0,98,0.00,,,0.00,meteohub,2013-03-12 14:22:00,
2013-03-12 10:27:00,48.7,48.2,30.06,South,180,3.0,6.0,98,0.00,,,0.00,meteohub,2013-03-12 14:27:00,
2013-03-12 10:37:00,49.1,48.6,30.06,South,180,1.0,6.0,98,0.00,,,0.00,meteohub,2013-03-12 14:37:00,
2013-03-12 10:42:00,49.1,48.2,30.09,SSE,158,5.0,8.0,97,0.00,,,0.00,meteohub,2013-03-12 14:42:00,
2013-03-12 10:47:00,49.3,48.2,30.09,East,90,3.0,9.0,96,0.00,,,0.00,meteohub,2013-03-12 14:47:00,
2013-03-12 10:52:00,49.3,48.2,30.09,South,180,3.0,9.0,96,0.00,,,0.00,meteohub,2013-03-12 14:52:00,
2013-03-12 11:02:00,49.5,48.0,30.06,SE,135,6.0,7.0,95,0.00,,,0.00,meteohub,2013-03-12 15:02:00,
2013-03-12 11:07:00,49.5,48.0,30.06,South,180,6.0,7.0,95,0.00,,,0.00,meteohub,2013-03-12 15:07:00,
2013-03-12 11:17:00,49.8,48.4,30.06,SSE,158,6.0,6.0,95,0.00,,,0.00,meteohub,2013-03-12 15:17:00,
2013-03-12 11:27:00,50.2,48.2,30.06,South,180,1.0,8.0,93,0.00,,,0.00,meteohub,2013-03-12 15:27:00,
2013-03-12 11:32:00,50.2,48.2,30.06,South,180,2.0,11.0,93,0.00,,,0.00,meteohub,2013-03-12 15:32:00,
2013-03-12 11:37:00,50.5,48.6,30.06,South,180,6.0,11.0,93,0.00,,,0.00,meteohub,2013-03-12 15:37:00,
2013-03-12 11:47:00,50.9,48.7,30.06,ESE,112,4.0,10.0,92,0.00,,,0.00,meteohub,2013-03-12 15:47:00,
2013-03-12 11:52:00,50.9,48.4,30.06,SW,225,4.0,10.0,91,0.00,,,0.00,meteohub,2013-03-12 15:52:00,
2013-03-12 12:02:00,51.6,48.7,30.06,South,180,4.0,9.0,90,0.00,,,0.00,meteohub,2013-03-12 16:02:00,
2013-03-12 12:07:00,52.0,48.9,30.06,WNW,292,2.0,9.0,89,0.00,,,0.00,meteohub,2013-03-12 16:07:00,
2013-03-12 12:12:00,52.0,48.9,30.06,WSW,248,4.0,8.0,89,0.00,,,0.00,meteohub,2013-03-12 16:12:00,
2013-03-12 12:22:00,52.2,48.7,30.06,South,180,3.0,8.0,88,0.00,,,0.00,meteohub,2013-03-12 16:22:00,
2013-03-12 12:27:00,52.2,48.4,30.03,SE,135,6.0,9.0,87,0.00,,,0.00,meteohub,2013-03-12 16:27:00,
2013-03-12 12:32:00,52.5,48.4,30.03,SW,225,9.0,9.0,86,0.00,,,0.00,meteohub,2013-03-12 16:32:00,
2013-03-12 12:37:00,52.5,48.2,30.03,SSE,158,4.0,10.0,85,0.00,,,0.00,meteohub,2013-03-12 16:37:00,
2013-03-12 12:42:00,52.3,48.0,30.03,ESE,112,6.0,10.0,85,0.00,,,0.00,meteohub,2013-03-12 16:42:00,
2013-03-12 12:52:00,52.5,48.2,30.03,South,180,9.0,9.0,85,0.00,,,0.00,meteohub,2013-03-12 16:52:00,
2013-03-12 12:57:00,52.5,48.2,30.00,WSW,248,3.0,9.0,85,0.00,,,0.00,meteohub,2013-03-12 16:57:00,
2013-03-12 13:02:00,52.7,48.4,30.00,West,270,0.0,9.0,85,0.00,,,0.00,meteohub,2013-03-12 17:02:00,
2013-03-12 13:12:00,53.2,48.6,30.00,ESE,112,6.0,6.0,84,0.00,,,0.00,meteohub,2013-03-12 17:12:00,
2013-03-12 13:22:00,53.6,48.9,30.00,SW,225,1.0,8.0,84,0.00,,,0.00,meteohub,2013-03-12 17:22:00,
2013-03-12 13:32:00,54.3,49.3,30.00,SSW,202,5.0,8.0,83,0.00,,,0.00,meteohub,2013-03-12 17:32:00,
2013-03-12 13:42:00,54.5,48.7,30.00,SE,135,3.0,6.0,81,0.00,,,0.00,meteohub,2013-03-12 17:42:00,
2013-03-12 13:47:00,54.7,48.6,30.00,South,180,3.0,8.0,80,0.00,,,0.00,meteohub,2013-03-12 17:47:00,
2013-03-12 13:57:00,54.7,48.9,30.00,South,180,2.0,8.0,81,0.00,,,0.00,meteohub,2013-03-12 17:57:00,
2013-03-12 14:02:00,54.7,48.6,30.00,SSW,202,1.0,6.0,80,0.00,,,0.00,meteohub,2013-03-12 18:02:00,
2013-03-12 14:07:00,54.7,48.6,30.00,SW,225,1.0,6.0,80,0.00,,,0.00,meteohub,2013-03-12 18:07:00,
2013-03-12 14:12:00,54.5,48.4,29.97,SSE,158,2.0,6.0,80,0.00,,,0.00,meteohub,2013-03-12 18:12:00,
2013-03-12 14:22:00,54.3,48.6,29.97,WNW,292,2.0,12.0,81,0.00,,,0.00,meteohub,2013-03-12 18:22:00,
2013-03-12 14:27:00,54.3,48.6,29.97,South,180,4.0,7.0,81,0.00,,,0.00,meteohub,2013-03-12 18:27:00,
2013-03-12 14:37:00,54.1,48.7,29.97,SSE,158,3.0,9.0,82,0.00,,,0.00,meteohub,2013-03-12 18:37:00,
2013-03-12 14:42:00,54.3,49.3,29.97,ESE,112,4.0,8.0,83,0.00,,,0.00,meteohub,2013-03-12 18:42:00,
2013-03-12 14:47:00,54.5,49.5,29.97,SSW,202,2.0,10.0,83,0.00,,,0.00,meteohub,2013-03-12 18:47:00,
2013-03-12 14:52:00,54.5,49.5,29.97,SSW,202,6.0,10.0,83,0.00,,,0.00,meteohub,2013-03-12 18:52:00,
2013-03-12 14:57:00,54.5,49.5,29.97,SSE,158,7.0,10.0,83,0.00,,,0.00,meteohub,2013-03-12 18:57:00,
2013-03-12 15:07:00,54.3,49.3,29.97,SW,225,6.0,8.0,83,0.00,,,0.00,meteohub,2013-03-12 19:07:00,
2013-03-12 15:12:00,54.1,49.1,29.94,SSE,158,4.0,9.0,83,0.00,,,0.00,meteohub,2013-03-12 19:12:00,
2013-03-12 15:17:00,54.0,48.9,29.94,SSE,158,3.0,9.0,83,0.00,,,0.00,meteohub,2013-03-12 19:17:00,
2013-03-12 15:22:00,53.6,48.9,29.94,SSE,158,1.0,9.0,84,0.00,,,0.00,meteohub,2013-03-12 19:22:00,
2013-03-12 15:27:00,53.4,49.1,29.91,ESE,112,4.0,9.0,85,0.00,,,0.00,meteohub,2013-03-12 19:27:00,
2013-03-12 15:37:00,53.1,49.3,29.91,WNW,292,4.0,8.0,87,0.00,,,0.00,meteohub,2013-03-12 19:37:00,
2013-03-12 15:47:00,52.9,49.8,29.94,WNW,292,1.0,9.0,89,0.00,,,0.00,meteohub,2013-03-12 19:47:00,
2013-03-12 15:52:00,53.1,49.8,29.94,South,180,3.0,9.0,89,0.00,,,0.00,meteohub,2013-03-12 19:52:00,
2013-03-12 15:57:00,53.1,49.8,29.94,SSE,158,2.0,9.0,89,0.00,,,0.00,meteohub,2013-03-12 19:57:00,
2013-03-12 16:02:00,53.1,49.8,29.94,NNW,338,4.0,9.0,89,0.00,,,0.00,meteohub,2013-03-12 20:02:00,
2013-03-12 16:12:00,53.1,49.8,29.91,SSE,158,9.0,9.0,89,0.00,,,0.00,meteohub,2013-03-12 20:12:00,
2013-03-12 16:22:00,52.9,50.0,29.91,SSE,158,5.0,10.0,90,0.00,,,0.00,meteohub,2013-03-12 20:22:00,
2013-03-12 16:27:00,52.7,50.2,29.91,SSE,158,5.0,17.0,91,0.00,,,0.00,meteohub,2013-03-12 20:27:00,
2013-03-12 16:32:00,52.5,50.0,29.91,SSE,158,6.0,17.0,91,0.00,,,0.00,meteohub,2013-03-12 20:32:00,
2013-03-12 16:37:00,52.3,50.4,29.91,SE,135,4.0,9.0,93,0.00,,,0.00,meteohub,2013-03-12 20:37:00,
2013-03-12 16:42:00,52.3,50.4,29.91,WSW,248,3.0,9.0,93,0.00,,,0.00,meteohub,2013-03-12 20:42:00,
2013-03-12 16:47:00,52.2,50.5,29.88,South,180,5.0,7.0,94,0.00,,,0.00,meteohub,2013-03-12 20:47:00,
2013-03-12 16:57:00,52.2,50.5,29.85,South,180,3.0,9.0,94,0.00,,,0.00,meteohub,2013-03-12 20:57:00,
2013-03-12 17:02:00,52.2,50.5,29.85,South,180,4.0,9.0,94,0.00,,,0.00,meteohub,2013-03-12 21:02:00,
2013-03-12 17:12:00,52.2,50.7,29.88,East,90,1.0,12.0,95,0.00,,,0.00,meteohub,2013-03-12 21:12:00,
2013-03-12 17:17:00,52.0,50.9,29.88,SSE,158,6.0,12.0,96,0.00,,,0.00,meteohub,2013-03-12 21:17:00,
2013-03-12 17:27:00,52.0,51.1,29.88,WNW,292,5.0,10.0,97,0.04,,,0.04,meteohub,2013-03-12 21:27:00,
2013-03-12 17:37:00,52.0,51.4,29.88,WSW,248,4.0,11.0,98,0.04,,,0.04,meteohub,2013-03-12 21:37:00,
2013-03-12 17:47:00,52.0,51.4,29.85,ESE,112,6.0,11.0,98,0.04,,,0.04,meteohub,2013-03-12 21:47:00,
2013-03-12 17:52:00,52.0,51.4,29.85,South,180,3.0,10.0,98,0.04,,,0.04,meteohub,2013-03-12 21:52:00,
2013-03-12 18:02:00,52.2,51.6,29.85,SSE,158,5.0,9.0,98,0.08,,,0.08,meteohub,2013-03-12 22:02:00,
2013-03-12 18:07:00,52.2,51.6,29.85,WSW,248,4.0,10.0,98,0.08,,,0.08,meteohub,2013-03-12 22:07:00,
2013-03-12 18:12:00,52.2,51.6,29.82,SSW,202,5.0,10.0,98,0.08,,,0.08,meteohub,2013-03-12 22:12:00,
2013-03-12 18:17:00,52.2,51.6,29.82,SW,225,10.0,10.0,98,0.04,,,0.08,meteohub,2013-03-12 22:17:00,
2013-03-12 18:22:00,52.2,51.6,29.82,ESE,112,6.0,10.0,98,0.04,,,0.08,meteohub,2013-03-12 22:22:00,
2013-03-12 18:27:00,52.3,51.8,29.82,South,180,3.0,10.0,98,0.04,,,0.08,meteohub,2013-03-12 22:27:00,
2013-03-12 18:32:00,52.3,51.8,29.82,WSW,248,3.0,13.0,98,0.04,,,0.08,meteohub,2013-03-12 22:32:00,
2013-03-12 18:37:00,52.3,51.8,29.82,WSW,248,6.0,13.0,98,0.04,,,0.08,meteohub,2013-03-12 22:37:00,
2013-03-12 18:42:00,52.3,51.8,29.82,West,270,6.0,13.0,98,0.04,,,0.08,meteohub,2013-03-12 22:42:00,
2013-03-12 18:52:00,52.5,52.0,29.82,SSE,158,6.0,10.0,98,0.08,,,0.12,meteohub,2013-03-12 22:52:00,
2013-03-12 18:57:00,52.5,52.0,29.79,SSE,158,6.0,10.0,98,0.09,,,0.17,meteohub,2013-03-12 22:57:00,
2013-03-12 19:02:00,52.5,52.0,29.79,ESE,112,2.0,13.0,98,0.09,,,0.17,meteohub,2013-03-12 23:02:00,
2013-03-12 19:07:00,52.3,51.8,29.79,SE,135,4.0,13.0,98,0.09,,,0.17,meteohub,2013-03-12 23:07:00,
2013-03-12 19:17:00,52.3,51.8,29.79,SSW,202,4.0,9.0,98,0.13,,,0.21,meteohub,2013-03-12 23:17:00,
2013-03-12 19:22:00,52.3,51.8,29.79,WSW,248,4.0,9.0,98,0.13,,,0.21,meteohub,2013-03-12 23:22:00,
2013-03-12 19:27:00,52.5,52.0,29.82,NNW,338,2.0,11.0,98,0.17,,,0.25,meteohub,2013-03-12 23:27:00,
2013-03-12 19:32:00,52.3,51.8,29.82,SSW,202,4.0,11.0,98,0.17,,,0.25,meteohub,2013-03-12 23:32:00,
2013-03-12 19:37:00,52.5,52.0,29.82,SSE,158,10.0,11.0,98,0.17,,,0.25,meteohub,2013-03-12 23:37:00,
2013-03-12 19:42:00,52.5,52.0,29.82,East,90,6.0,13.0,98,0.17,,,0.29,meteohub,2013-03-12 23:42:00,
2013-03-12 19:47:00,52.3,51.8,29.82,SW,225,8.0,13.0,98,0.17,,,0.29,meteohub,2013-03-12 23:47:00,
2013-03-12 19:52:00,52.5,52.0,29.82,ESE,112,4.0,13.0,98,0.17,,,0.29,meteohub,2013-03-12 23:52:00,
2013-03-12 19:57:00,52.5,52.0,29.79,SSE,158,3.0,13.0,98,0.12,,,0.29,meteohub,2013-03-12 23:57:00,
2013-03-12 20:02:00,52.5,52.0,29.79,South,180,5.0,13.0,98,0.12,,,0.29,meteohub,2013-03-13 00:02:00,
2013-03-12 20:12:00,52.5,52.0,29.79,South,180,4.0,10.0,98,0.08,,,0.00,meteohub,2013-03-13 00:12:00,
2013-03-12 20:17:00,52.3,51.8,29.79,South,180,6.0,11.0,98,0.08,,,0.00,meteohub,2013-03-13 00:17:00,
2013-03-12 20:22:00,52.3,51.8,29.79,South,180,5.0,11.0,98,0.04,,,0.00,meteohub,2013-03-13 00:22:00,
2013-03-12 20:32:00,52.2,51.6,29.79,SSW,202,4.0,13.0,98,0.08,,,0.04,meteohub,2013-03-13 00:32:00,
2013-03-12 20:37:00,52.2,51.6,29.79,South,180,9.0,13.0,98,0.04,,,0.04,meteohub,2013-03-13 00:37:00,
2013-03-12 20:42:00,52.2,51.6,29.79,SE,135,2.0,11.0,98,0.04,,,0.04,meteohub,2013-03-13 00:42:00,
2013-03-12 20:52:00,52.0,51.4,29.79,SSE,158,4.0,11.0,98,0.04,,,0.04,meteohub,2013-03-13 00:52:00,
2013-03-12 21:02:00,52.2,51.6,29.82,SSE,158,3.0,6.0,98,0.04,,,0.04,meteohub,2013-03-13 01:02:00,
2013-03-12 21:12:00,52.3,51.8,29.82,WNW,292,3.0,10.0,98,0.04,,,0.04,meteohub,2013-03-13 01:12:00,
2013-03-12 21:17:00,52.5,52.0,29.82,WSW,248,6.0,10.0,98,0.04,,,0.04,meteohub,2013-03-13 01:17:00,
2013-03-12 21:32:00,52.5,52.0,29.82,SSE,158,2.0,7.0,98,0.00,,,0.04,meteohub,2013-03-13 01:32:00,
2013-03-12 21:42:00,52.5,52.0,29.82,WSW,248,4.0,10.0,98,0.00,,,0.04,meteohub,2013-03-13 01:42:00,
2013-03-12 21:47:00,52.5,52.0,29.82,WSW,248,1.0,10.0,98,0.00,,,0.04,meteohub,2013-03-13 01:47:00,
2013-03-12 21:52:00,52.3,51.8,29.82,SSW,202,3.0,6.0,98,0.00,,,0.04,meteohub,2013-03-13 01:52:00,
2013-03-12 21:57:00,52.3,51.8,29.82,SSE,158,4.0,6.0,98,0.00,,,0.04,meteohub,2013-03-13 01:57:00,
2013-03-12 22:02:00,52.2,51.6,29.82,SW,225,2.0,6.0,98,0.00,,,0.04,meteohub,2013-03-13 02:02:00,
2013-03-12 22:07:00,52.2,51.6,29.82,WSW,248,2.0,6.0,98,0.00,,,0.04,meteohub,2013-03-13 02:07:00,
2013-03-12 22:12:00,52.0,51.4,29.82,SW,225,2.0,6.0,98,0.00,,,0.04,meteohub,2013-03-13 02:12:00,
2013-03-12 22:17:00,51.8,51.3,29.82,SW,225,3.0,6.0,98,0.00,,,0.04,meteohub,2013-03-13 02:17:00,
2013-03-12 22:27:00,51.8,51.3,29.82,SW,225,2.0,6.0,98,0.00,,,0.04,meteohub,2013-03-13 02:27:00,
2013-03-12 22:32:00,51.8,51.3,29.82,SSW,202,2.0,9.0,98,0.00,,,0.04,meteohub,2013-03-13 02:32:00,
2013-03-12 22:42:00,51.6,51.1,29.82,South,180,1.0,8.0,98,0.00,,,0.04,meteohub,2013-03-13 02:42:00,
2013-03-12 22:47:00,51.4,50.9,29.82,WSW,248,2.0,5.0,98,0.00,,,0.04,meteohub,2013-03-13 02:47:00,
2013-03-12 22:52:00,51.3,50.7,29.82,SSE,158,1.0,5.0,98,0.00,,,0.04,meteohub,2013-03-13 02:52:00,
2013-03-12 22:57:00,51.4,50.9,29.82,South,180,1.0,5.0,98,0.00,,,0.04,meteohub,2013-03-13 02:57:00,
2013-03-12 23:07:00,51.1,50.5,29.82,SW,225,0.0,4.0,98,0.00,,,0.04,meteohub,2013-03-13 03:07:00,
2013-03-12 23:12:00,50.9,50.4,29.82,South,180,3.0,4.0,98,0.00,,,0.04,meteohub,2013-03-13 03:12:00,
2013-03-12 23:17:00,51.1,50.5,29.82,SW,225,2.0,3.0,98,0.00,,,0.04,meteohub,2013-03-13 03:17:00,
2013-03-12 23:27:00,50.9,50.4,29.82,SSW,202,2.0,5.0,98,0.00,,,0.04,meteohub,2013-03-13 03:27:00,
2013-03-12 23:32:00,50.9,50.4,29.82,SSW,202,1.0,3.0,98,0.00,,,0.04,meteohub,2013-03-13 03:32:00,
2013-03-12 23:37:00,50.7,50.2,29.82,SSW,202,1.0,4.0,98,0.00,,,0.04,meteohub,2013-03-13 03:37:00,
2013-03-12 23:42:00,50.5,50.0,29.82,WNW,292,2.0,4.0,98,0.00,,,0.04,meteohub,2013-03-13 03:42:00,
2013-03-12 23:47:00,50.2,49.6,29.82,West,270,3.0,3.0,98,0.00,,,0.04,meteohub,2013-03-13 03:47:00,
2013-03-12 23:52:00,49.5,48.9,29.82,WSW,248,6.0,6.0,98,0.00,,,0.04,meteohub,2013-03-13 03:52:00,
2013-03-12 23:57:00,49.1,48.6,29.79,WSW,248,3.0,6.0,98,0.00,,,0.04,meteohub,2013-03-13 03:57:00,